sensor_id;sensor_type;location;lat;lon;timestamp;temperature;humidity
70154;DHT22;57519;51.494;-2.626;2022-11-15T00:00:33;11.40;83.75
70154;DHT22;57519;51.494;-2.626;2022-11-15T00:02:59;11.48;83.62
70154;DHT22;57519;51.494;-2.626;2022-11-15T00:05:25;11.54;83.40
70154;DHT22;57519;51.494;-2.626;2022-11-15T00:07:51;11.59;83.19
70154;DHT22;57519;51.494;-2.626;2022-11-15T00:10:17;11.55;83.69
70154;DHT22;57519;51.494;-2.626;2022-11-15T00:12:42;11.55;83.44
70154;DHT22;57519;51.494;-2.626;2022-11-15T00:15:08;11.62;83.27
70154;DHT22;57519;51.494;-2.626;2022-11-15T00:17:34;11.72;82.67
70154;DHT22;57519;51.494;-2.626;2022-11-15T00:19:59;11.66;83.36
70154;DHT22;57519;51.494;-2.626;2022-11-15T00:22:31;11.61;83.43
70154;DHT22;57519;51.494;-2.626;2022-11-15T00:24:56;11.55;83.72
70154;DHT22;57519;51.494;-2.626;2022-11-15T00:27:22;11.55;83.82
70154;DHT22;57519;51.494;-2.626;2022-11-15T00:29:47;11.62;84.11
70154;DHT22;57519;51.494;-2.626;2022-11-15T00:32:13;11.56;83.73
70154;DHT22;57519;51.494;-2.626;2022-11-15T00:34:38;11.58;83.59
70154;DHT22;57519;51.494;-2.626;2022-11-15T00:37:03;11.55;84.10
70154;DHT22;57519;51.494;-2.626;2022-11-15T00:39:29;11.55;84.34
70154;DHT22;57519;51.494;-2.626;2022-11-15T00:41:54;11.56;84.26
70154;DHT22;57519;51.494;-2.626;2022-11-15T00:44:20;11.62;83.94
70154;DHT22;57519;51.494;-2.626;2022-11-15T00:46:45;11.73;83.50
70154;DHT22;57519;51.494;-2.626;2022-11-15T00:49:10;11.82;83.57
70154;DHT22;57519;51.494;-2.626;2022-11-15T00:51:36;11.79;83.61
70154;DHT22;57519;51.494;-2.626;2022-11-15T00:54:01;11.79;83.74
70154;DHT22;57519;51.494;-2.626;2022-11-15T00:56:27;11.86;83.35
70154;DHT22;57519;51.494;-2.626;2022-11-15T00:58:52;11.89;83.70
70154;DHT22;57519;51.494;-2.626;2022-11-15T01:01:18;11.86;83.82
70154;DHT22;57519;51.494;-2.626;2022-11-15T01:03:43;11.89;84.00
70154;DHT22;57519;51.494;-2.626;2022-11-15T01:06:09;11.82;84.56
70154;DHT22;57519;51.494;-2.626;2022-11-15T01:08:35;11.83;85.27
70154;DHT22;57519;51.494;-2.626;2022-11-15T01:11:09;11.75;85.52
70154;DHT22;57519;51.494;-2.626;2022-11-15T01:13:35;11.80;85.18
70154;DHT22;57519;51.494;-2.626;2022-11-15T01:16:16;11.82;85.34
70154;DHT22;57519;51.494;-2.626;2022-11-15T01:18:43;11.90;85.22
70154;DHT22;57519;51.494;-2.626;2022-11-15T01:21:17;11.83;85.50
70154;DHT22;57519;51.494;-2.626;2022-11-15T01:23:43;11.83;85.43
70154;DHT22;57519;51.494;-2.626;2022-11-15T01:26:13;11.90;85.16
70154;DHT22;57519;51.494;-2.626;2022-11-15T01:28:40;11.90;85.56
70154;DHT22;57519;51.494;-2.626;2022-11-15T01:31:11;11.87;86.29
70154;DHT22;57519;51.494;-2.626;2022-11-15T01:33:37;11.79;87.36
70154;DHT22;57519;51.494;-2.626;2022-11-15T01:36:04;11.77;87.41
70154;DHT22;57519;51.494;-2.626;2022-11-15T01:38:30;11.76;87.62
70154;DHT22;57519;51.494;-2.626;2022-11-15T01:40:55;11.83;87.55
70154;DHT22;57519;51.494;-2.626;2022-11-15T01:43:24;11.76;87.92
70154;DHT22;57519;51.494;-2.626;2022-11-15T01:45:58;11.75;88.07
70154;DHT22;57519;51.494;-2.626;2022-11-15T01:48:30;11.77;88.11
70154;DHT22;57519;51.494;-2.626;2022-11-15T01:50:58;11.84;87.51
70154;DHT22;57519;51.494;-2.626;2022-11-15T01:53:26;11.80;87.94
70154;DHT22;57519;51.494;-2.626;2022-11-15T01:55:52;11.82;87.99
70154;DHT22;57519;51.494;-2.626;2022-11-15T01:58:18;11.79;88.11
70154;DHT22;57519;51.494;-2.626;2022-11-15T02:00:43;11.87;87.54
70154;DHT22;57519;51.494;-2.626;2022-11-15T02:03:09;11.90;87.35
70154;DHT22;57519;51.494;-2.626;2022-11-15T02:05:36;11.93;87.32
70154;DHT22;57519;51.494;-2.626;2022-11-15T02:08:02;11.93;87.60
70154;DHT22;57519;51.494;-2.626;2022-11-15T02:10:28;11.98;87.45
70154;DHT22;57519;51.494;-2.626;2022-11-15T02:12:54;11.93;87.55
70154;DHT22;57519;51.494;-2.626;2022-11-15T02:15:21;11.97;87.48
70154;DHT22;57519;51.494;-2.626;2022-11-15T02:26:44;11.97;87.67
70154;DHT22;57519;51.494;-2.626;2022-11-15T02:29:06;11.97;87.93
70154;DHT22;57519;51.494;-2.626;2022-11-15T02:34:54;11.91;88.96
70154;DHT22;57519;51.494;-2.626;2022-11-15T02:42:45;11.77;89.54
70154;DHT22;57519;51.494;-2.626;2022-11-15T02:45:37;11.76;90.31
70154;DHT22;57519;51.494;-2.626;2022-11-15T02:48:05;11.79;89.89
70154;DHT22;57519;51.494;-2.626;2022-11-15T02:50:32;11.77;90.01
70154;DHT22;57519;51.494;-2.626;2022-11-15T02:52:58;11.86;89.64
70154;DHT22;57519;51.494;-2.626;2022-11-15T02:55:38;11.82;90.46
70154;DHT22;57519;51.494;-2.626;2022-11-15T03:01:14;11.82;90.77
70154;DHT22;57519;51.494;-2.626;2022-11-15T03:04:02;11.80;91.27
70154;DHT22;57519;51.494;-2.626;2022-11-15T03:09:42;11.75;91.97
70154;DHT22;57519;51.494;-2.626;2022-11-15T03:13:02;11.73;92.20
70154;DHT22;57519;51.494;-2.626;2022-11-15T03:15:20;11.70;92.66
70154;DHT22;57519;51.494;-2.626;2022-11-15T03:18:02;11.67;93.02
70154;DHT22;57519;51.494;-2.626;2022-11-15T03:20:30;11.69;92.94
70154;DHT22;57519;51.494;-2.626;2022-11-15T03:23:08;11.75;92.81
70154;DHT22;57519;51.494;-2.626;2022-11-15T03:25:38;11.69;92.95
70154;DHT22;57519;51.494;-2.626;2022-11-15T03:28:07;11.72;93.15
70154;DHT22;57519;51.494;-2.626;2022-11-15T03:30:36;11.67;93.13
70154;DHT22;57519;51.494;-2.626;2022-11-15T03:33:03;11.73;92.82
70154;DHT22;57519;51.494;-2.626;2022-11-15T03:35:35;11.67;93.16
70154;DHT22;57519;51.494;-2.626;2022-11-15T03:38:21;11.73;93.00
70154;DHT22;57519;51.494;-2.626;2022-11-15T03:40:59;11.69;93.31
70154;DHT22;57519;51.494;-2.626;2022-11-15T03:43:37;11.69;93.55
70154;DHT22;57519;51.494;-2.626;2022-11-15T03:46:14;11.73;93.50
70154;DHT22;57519;51.494;-2.626;2022-11-15T03:48:49;11.82;92.98
70154;DHT22;57519;51.494;-2.626;2022-11-15T03:51:16;11.79;93.00
70154;DHT22;57519;51.494;-2.626;2022-11-15T03:53:41;11.77;92.95
70154;DHT22;57519;51.494;-2.626;2022-11-15T03:56:07;11.75;93.30
70154;DHT22;57519;51.494;-2.626;2022-11-15T03:58:32;11.73;93.54
70154;DHT22;57519;51.494;-2.626;2022-11-15T04:00:58;11.79;93.46
70154;DHT22;57519;51.494;-2.626;2022-11-15T04:03:25;11.75;93.70
70154;DHT22;57519;51.494;-2.626;2022-11-15T04:05:50;11.73;93.93
70154;DHT22;57519;51.494;-2.626;2022-11-15T04:08:15;11.84;93.74
70154;DHT22;57519;51.494;-2.626;2022-11-15T04:10:41;11.80;93.58
70154;DHT22;57519;51.494;-2.626;2022-11-15T04:13:06;11.79;93.75
70154;DHT22;57519;51.494;-2.626;2022-11-15T04:15:32;11.80;94.05
70154;DHT22;57519;51.494;-2.626;2022-11-15T04:17:58;11.80;94.09
70154;DHT22;57519;51.494;-2.626;2022-11-15T04:20:28;11.83;93.78
70154;DHT22;57519;51.494;-2.626;2022-11-15T04:25:59;11.75;94.34
70154;DHT22;57519;51.494;-2.626;2022-11-15T04:28:26;11.77;94.41
70154;DHT22;57519;51.494;-2.626;2022-11-15T04:30:51;11.79;94.43
70154;DHT22;57519;51.494;-2.626;2022-11-15T04:33:17;11.79;94.57
70154;DHT22;57519;51.494;-2.626;2022-11-15T04:35:42;11.84;94.60
70154;DHT22;57519;51.494;-2.626;2022-11-15T04:38:09;11.82;94.50
70154;DHT22;57519;51.494;-2.626;2022-11-15T04:40:36;11.86;94.16
70154;DHT22;57519;51.494;-2.626;2022-11-15T04:43:03;11.83;94.36
70154;DHT22;57519;51.494;-2.626;2022-11-15T04:45:30;11.84;94.68
70154;DHT22;57519;51.494;-2.626;2022-11-15T04:47:55;11.84;94.67
70154;DHT22;57519;51.494;-2.626;2022-11-15T04:50:21;11.86;94.84
70154;DHT22;57519;51.494;-2.626;2022-11-15T04:52:51;11.84;94.86
70154;DHT22;57519;51.494;-2.626;2022-11-15T04:55:17;11.84;94.80
70154;DHT22;57519;51.494;-2.626;2022-11-15T04:57:43;11.84;94.84
70154;DHT22;57519;51.494;-2.626;2022-11-15T05:00:13;11.83;94.84
70154;DHT22;57519;51.494;-2.626;2022-11-15T05:02:39;11.93;94.85
70154;DHT22;57519;51.494;-2.626;2022-11-15T05:05:24;11.89;94.77
70154;DHT22;57519;51.494;-2.626;2022-11-15T05:07:50;11.96;94.88
70154;DHT22;57519;51.494;-2.626;2022-11-15T05:10:15;11.96;94.77
70154;DHT22;57519;51.494;-2.626;2022-11-15T05:12:41;11.96;94.68
70154;DHT22;57519;51.494;-2.626;2022-11-15T05:15:06;11.97;94.66
70154;DHT22;57519;51.494;-2.626;2022-11-15T05:17:32;11.93;94.60
70154;DHT22;57519;51.494;-2.626;2022-11-15T05:19:57;11.94;94.79
70154;DHT22;57519;51.494;-2.626;2022-11-15T05:22:23;11.94;94.58
70154;DHT22;57519;51.494;-2.626;2022-11-15T05:24:49;11.96;94.82
70154;DHT22;57519;51.494;-2.626;2022-11-15T05:27:14;12.04;94.59
70154;DHT22;57519;51.494;-2.626;2022-11-15T05:29:39;11.98;94.54
70154;DHT22;57519;51.494;-2.626;2022-11-15T05:32:06;11.98;94.68
70154;DHT22;57519;51.494;-2.626;2022-11-15T05:34:33;12.01;94.71
70154;DHT22;57519;51.494;-2.626;2022-11-15T05:36:59;11.98;94.70
70154;DHT22;57519;51.494;-2.626;2022-11-15T05:39:24;12.05;94.79
70154;DHT22;57519;51.494;-2.626;2022-11-15T05:42:20;12.03;94.76
70154;DHT22;57519;51.494;-2.626;2022-11-15T05:44:48;12.07;94.72
70154;DHT22;57519;51.494;-2.626;2022-11-15T05:47:21;12.05;94.50
70154;DHT22;57519;51.494;-2.626;2022-11-15T05:49:50;12.13;94.42
70154;DHT22;57519;51.494;-2.626;2022-11-15T05:52:20;12.07;94.35
70154;DHT22;57519;51.494;-2.626;2022-11-15T05:54:47;12.13;94.52
70154;DHT22;57519;51.494;-2.626;2022-11-15T05:57:14;12.10;94.41
70154;DHT22;57519;51.494;-2.626;2022-11-15T05:59:39;12.17;94.19
70154;DHT22;57519;51.494;-2.626;2022-11-15T06:02:06;12.13;94.27
70154;DHT22;57519;51.494;-2.626;2022-11-15T06:04:31;12.07;94.65
70154;DHT22;57519;51.494;-2.626;2022-11-15T06:06:58;12.07;94.74
70154;DHT22;57519;51.494;-2.626;2022-11-15T06:09:24;12.08;94.84
70154;DHT22;57519;51.494;-2.626;2022-11-15T06:11:49;12.10;94.87
70154;DHT22;57519;51.494;-2.626;2022-11-15T06:14:15;12.14;94.94
70154;DHT22;57519;51.494;-2.626;2022-11-15T06:16:40;12.10;94.67
70154;DHT22;57519;51.494;-2.626;2022-11-15T06:19:06;12.07;94.94
70154;DHT22;57519;51.494;-2.626;2022-11-15T06:21:31;12.08;94.99
70154;DHT22;57519;51.494;-2.626;2022-11-15T06:23:57;12.13;95.15
70154;DHT22;57519;51.494;-2.626;2022-11-15T06:26:22;12.08;95.02
70154;DHT22;57519;51.494;-2.626;2022-11-15T06:28:48;12.07;95.19
70154;DHT22;57519;51.494;-2.626;2022-11-15T06:31:13;12.08;95.24
70154;DHT22;57519;51.494;-2.626;2022-11-15T06:33:39;12.08;95.36
70154;DHT22;57519;51.494;-2.626;2022-11-15T06:36:07;12.13;95.47
70154;DHT22;57519;51.494;-2.626;2022-11-15T06:38:33;12.14;95.33
70154;DHT22;57519;51.494;-2.626;2022-11-15T06:41:02;12.10;95.47
70154;DHT22;57519;51.494;-2.626;2022-11-15T06:43:28;12.13;95.57
70154;DHT22;57519;51.494;-2.626;2022-11-15T06:45:53;12.13;95.59
70154;DHT22;57519;51.494;-2.626;2022-11-15T06:48:19;12.17;95.82
70154;DHT22;57519;51.494;-2.626;2022-11-15T06:50:50;12.23;95.84
70154;DHT22;57519;51.494;-2.626;2022-11-15T06:53:16;12.24;95.84
70154;DHT22;57519;51.494;-2.626;2022-11-15T06:55:42;12.24;95.92
70154;DHT22;57519;51.494;-2.626;2022-11-15T06:58:07;12.31;95.93
70154;DHT22;57519;51.494;-2.626;2022-11-15T07:00:32;12.32;95.82
70154;DHT22;57519;51.494;-2.626;2022-11-15T07:03:01;12.35;95.81
70154;DHT22;57519;51.494;-2.626;2022-11-15T07:05:27;12.35;95.91
70154;DHT22;57519;51.494;-2.626;2022-11-15T07:07:53;12.35;95.99
70154;DHT22;57519;51.494;-2.626;2022-11-15T07:10:19;12.40;96.00
70154;DHT22;57519;51.494;-2.626;2022-11-15T07:12:48;12.46;96.02
70154;DHT22;57519;51.494;-2.626;2022-11-15T07:15:18;12.46;96.05
70154;DHT22;57519;51.494;-2.626;2022-11-15T07:17:44;12.48;96.08
70154;DHT22;57519;51.494;-2.626;2022-11-15T07:20:10;12.52;96.20
70154;DHT22;57519;51.494;-2.626;2022-11-15T07:22:36;12.62;96.17
70154;DHT22;57519;51.494;-2.626;2022-11-15T07:25:01;12.52;96.11
70154;DHT22;57519;51.494;-2.626;2022-11-15T07:27:26;12.56;96.16
70154;DHT22;57519;51.494;-2.626;2022-11-15T07:29:52;12.58;96.24
70154;DHT22;57519;51.494;-2.626;2022-11-15T07:32:17;12.58;96.22
70154;DHT22;57519;51.494;-2.626;2022-11-15T07:34:45;12.62;96.35
70154;DHT22;57519;51.494;-2.626;2022-11-15T07:37:12;12.61;96.29
70154;DHT22;57519;51.494;-2.626;2022-11-15T07:39:37;12.61;96.30
70154;DHT22;57519;51.494;-2.626;2022-11-15T07:42:03;12.62;96.39
70154;DHT22;57519;51.494;-2.626;2022-11-15T07:44:47;12.63;96.42
70154;DHT22;57519;51.494;-2.626;2022-11-15T07:47:13;12.69;96.47
70154;DHT22;57519;51.494;-2.626;2022-11-15T07:49:38;12.62;96.47
70154;DHT22;57519;51.494;-2.626;2022-11-15T07:52:04;12.69;96.62
70154;DHT22;57519;51.494;-2.626;2022-11-15T07:54:29;12.69;96.65
70154;DHT22;57519;51.494;-2.626;2022-11-15T07:56:55;12.65;96.72
70154;DHT22;57519;51.494;-2.626;2022-11-15T07:59:20;12.69;96.71
70154;DHT22;57519;51.494;-2.626;2022-11-15T08:01:46;12.68;96.70
70154;DHT22;57519;51.494;-2.626;2022-11-15T08:04:11;12.72;96.68
70154;DHT22;57519;51.494;-2.626;2022-11-15T08:06:37;12.71;96.65
70154;DHT22;57519;51.494;-2.626;2022-11-15T08:09:02;12.73;96.71
70154;DHT22;57519;51.494;-2.626;2022-11-15T08:11:28;12.72;96.67
70154;DHT22;57519;51.494;-2.626;2022-11-15T08:13:53;12.75;96.69
70154;DHT22;57519;51.494;-2.626;2022-11-15T08:16:19;12.78;96.65
70154;DHT22;57519;51.494;-2.626;2022-11-15T08:18:45;12.79;96.68
70154;DHT22;57519;51.494;-2.626;2022-11-15T08:21:13;12.80;96.63
70154;DHT22;57519;51.494;-2.626;2022-11-15T08:23:39;12.79;96.58
70154;DHT22;57519;51.494;-2.626;2022-11-15T08:26:05;12.83;96.66
70154;DHT22;57519;51.494;-2.626;2022-11-15T08:28:31;12.79;96.63
70154;DHT22;57519;51.494;-2.626;2022-11-15T08:30:57;12.88;96.69
70154;DHT22;57519;51.494;-2.626;2022-11-15T08:33:23;12.82;96.60
70154;DHT22;57519;51.494;-2.626;2022-11-15T08:35:48;12.85;96.61
70154;DHT22;57519;51.494;-2.626;2022-11-15T08:38:14;12.86;96.55
70154;DHT22;57519;51.494;-2.626;2022-11-15T08:40:39;12.88;96.56
70154;DHT22;57519;51.494;-2.626;2022-11-15T08:43:05;12.92;96.45
70154;DHT22;57519;51.494;-2.626;2022-11-15T08:45:31;12.92;96.27
70154;DHT22;57519;51.494;-2.626;2022-11-15T08:48:00;12.34;94.64
70154;DHT22;57519;51.494;-2.626;2022-11-15T08:50:26;12.17;94.56
70154;DHT22;57519;51.494;-2.626;2022-11-15T08:52:51;12.04;94.75
70154;DHT22;57519;51.494;-2.626;2022-11-15T08:55:17;11.94;94.85
70154;DHT22;57519;51.494;-2.626;2022-11-15T08:57:42;11.84;94.97
70154;DHT22;57519;51.494;-2.626;2022-11-15T09:00:08;11.80;95.09
70154;DHT22;57519;51.494;-2.626;2022-11-15T09:02:34;11.82;95.34
70154;DHT22;57519;51.494;-2.626;2022-11-15T09:04:59;11.82;95.44
70154;DHT22;57519;51.494;-2.626;2022-11-15T09:07:24;11.73;95.36
70154;DHT22;57519;51.494;-2.626;2022-11-15T09:09:50;11.77;95.42
70154;DHT22;57519;51.494;-2.626;2022-11-15T09:12:15;11.79;95.49
70154;DHT22;57519;51.494;-2.626;2022-11-15T09:14:41;11.77;95.60
70154;DHT22;57519;51.494;-2.626;2022-11-15T09:17:09;11.83;95.66
70154;DHT22;57519;51.494;-2.626;2022-11-15T09:19:34;11.83;95.68
70154;DHT22;57519;51.494;-2.626;2022-11-15T09:22:00;11.76;95.51
70154;DHT22;57519;51.494;-2.626;2022-11-15T09:24:26;11.76;95.53
70154;DHT22;57519;51.494;-2.626;2022-11-15T09:26:51;11.75;95.59
70154;DHT22;57519;51.494;-2.626;2022-11-15T09:29:17;11.73;95.68
70154;DHT22;57519;51.494;-2.626;2022-11-15T09:31:43;11.66;95.62
70154;DHT22;57519;51.494;-2.626;2022-11-15T09:34:08;11.61;95.43
70154;DHT22;57519;51.494;-2.626;2022-11-15T09:36:34;11.58;95.47
70154;DHT22;57519;51.494;-2.626;2022-11-15T09:39:00;11.55;95.40
70154;DHT22;57519;51.494;-2.626;2022-11-15T09:47:02;11.31;94.71
70154;DHT22;57519;51.494;-2.626;2022-11-15T09:49:30;11.31;94.82
70154;DHT22;57519;51.494;-2.626;2022-11-15T09:51:56;11.36;94.86
70154;DHT22;57519;51.494;-2.626;2022-11-15T09:54:26;11.32;94.87
70154;DHT22;57519;51.494;-2.626;2022-11-15T09:56:56;11.31;94.63
70154;DHT22;57519;51.494;-2.626;2022-11-15T10:04:53;11.27;94.36
70154;DHT22;57519;51.494;-2.626;2022-11-15T10:07:25;11.25;94.48
70154;DHT22;57519;51.494;-2.626;2022-11-15T10:09:53;11.28;94.69
70154;DHT22;57519;51.494;-2.626;2022-11-15T10:12:20;11.27;94.52
70154;DHT22;57519;51.494;-2.626;2022-11-15T10:14:48;11.27;94.50
70154;DHT22;57519;51.494;-2.626;2022-11-15T10:17:25;11.31;94.46
70154;DHT22;57519;51.494;-2.626;2022-11-15T10:22:45;11.36;94.52
70154;DHT22;57519;51.494;-2.626;2022-11-15T10:25:37;11.38;94.48
70154;DHT22;57519;51.494;-2.626;2022-11-15T10:28:09;11.34;94.20
70154;DHT22;57519;51.494;-2.626;2022-11-15T10:30:40;11.38;94.23
70154;DHT22;57519;51.494;-2.626;2022-11-15T10:33:25;11.38;93.78
70154;DHT22;57519;51.494;-2.626;2022-11-15T10:41:30;11.42;93.41
70154;DHT22;57519;51.494;-2.626;2022-11-15T10:44:17;11.46;93.55
70154;DHT22;57519;51.494;-2.626;2022-11-15T10:47:03;11.54;93.59
70154;DHT22;57519;51.494;-2.626;2022-11-15T10:49:31;11.49;92.88
70154;DHT22;57519;51.494;-2.626;2022-11-15T10:52:12;11.52;92.78
70154;DHT22;57519;51.494;-2.626;2022-11-15T10:57:19;11.55;92.50
70154;DHT22;57519;51.494;-2.626;2022-11-15T10:59:51;11.58;92.57
70154;DHT22;57519;51.494;-2.626;2022-11-15T11:02:37;11.67;92.49
70154;DHT22;57519;51.494;-2.626;2022-11-15T11:08:00;11.86;92.05
70154;DHT22;57519;51.494;-2.626;2022-11-15T11:10:27;11.98;91.75
70154;DHT22;57519;51.494;-2.626;2022-11-15T11:12:53;12.03;91.65
70154;DHT22;57519;51.494;-2.626;2022-11-15T11:15:18;12.05;91.92
70154;DHT22;57519;51.494;-2.626;2022-11-15T11:17:57;12.08;91.82
70154;DHT22;57519;51.494;-2.626;2022-11-15T11:20:37;12.01;91.08
70154;DHT22;57519;51.494;-2.626;2022-11-15T11:26:00;12.03;91.35
70154;DHT22;57519;51.494;-2.626;2022-11-15T11:37:03;12.13;89.63
70154;DHT22;57519;51.494;-2.626;2022-11-15T11:47:23;12.66;88.45
70154;DHT22;57519;51.494;-2.626;2022-11-15T11:50:14;12.58;87.35
70154;DHT22;57519;51.494;-2.626;2022-11-15T11:55:43;12.56;88.06
70154;DHT22;57519;51.494;-2.626;2022-11-15T11:58:16;12.45;88.16
70154;DHT22;57519;51.494;-2.626;2022-11-15T12:00:55;12.51;88.46
70154;DHT22;57519;51.494;-2.626;2022-11-15T12:06:22;12.53;88.19
70154;DHT22;57519;51.494;-2.626;2022-11-15T12:08:53;12.55;88.69
70154;DHT22;57519;51.494;-2.626;2022-11-15T12:14:47;12.62;88.78
70154;DHT22;57519;51.494;-2.626;2022-11-15T12:17:15;12.62;87.95
70154;DHT22;57519;51.494;-2.626;2022-11-15T12:19:42;12.59;87.66
70154;DHT22;57519;51.494;-2.626;2022-11-15T12:22:24;12.68;86.52
70154;DHT22;57519;51.494;-2.626;2022-11-15T12:25:01;12.65;86.56
70154;DHT22;57519;51.494;-2.626;2022-11-15T12:30:03;12.40;85.23
70154;DHT22;57519;51.494;-2.626;2022-11-15T12:32:33;12.32;84.15
70154;DHT22;57519;51.494;-2.626;2022-11-15T12:35:00;12.18;82.83
70154;DHT22;57519;51.494;-2.626;2022-11-15T12:44:57;12.23;83.37
70154;DHT22;57519;51.494;-2.626;2022-11-15T12:47:26;12.28;83.51
70154;DHT22;57519;51.494;-2.626;2022-11-15T12:49:51;12.35;84.15
70154;DHT22;57519;51.494;-2.626;2022-11-15T12:52:17;12.42;83.66
70154;DHT22;57519;51.494;-2.626;2022-11-15T13:00:00;12.71;80.46
70154;DHT22;57519;51.494;-2.626;2022-11-15T13:17:49;12.61;75.92
70154;DHT22;57519;51.494;-2.626;2022-11-15T13:23:08;12.80;78.06
70154;DHT22;57519;51.494;-2.626;2022-11-15T13:25:48;12.83;78.27
70154;DHT22;57519;51.494;-2.626;2022-11-15T13:30:58;12.75;77.85
70154;DHT22;57519;51.494;-2.626;2022-11-15T13:33:32;12.66;77.91
70154;DHT22;57519;51.494;-2.626;2022-11-15T13:36:02;12.62;76.69
70154;DHT22;57519;51.494;-2.626;2022-11-15T13:38:39;12.62;78.44
70154;DHT22;57519;51.494;-2.626;2022-11-15T13:41:20;12.45;79.47
70154;DHT22;57519;51.494;-2.626;2022-11-15T13:43:46;12.40;77.90
70154;DHT22;57519;51.494;-2.626;2022-11-15T13:46:23;12.46;79.11
70154;DHT22;57519;51.494;-2.626;2022-11-15T13:49:04;12.41;79.19
70154;DHT22;57519;51.494;-2.626;2022-11-15T13:51:50;12.18;79.85
70154;DHT22;57519;51.494;-2.626;2022-11-15T13:57:19;11.97;80.40
70154;DHT22;57519;51.494;-2.626;2022-11-15T13:59:53;11.94;79.53
70154;DHT22;57519;51.494;-2.626;2022-11-15T14:02:29;12.00;81.64
70154;DHT22;57519;51.494;-2.626;2022-11-15T14:05:17;11.96;81.27
70154;DHT22;57519;51.494;-2.626;2022-11-15T14:10:36;11.97;78.73
70154;DHT22;57519;51.494;-2.626;2022-11-15T14:13:03;11.93;82.22
70154;DHT22;57519;51.494;-2.626;2022-11-15T14:15:35;11.91;82.67
70154;DHT22;57519;51.494;-2.626;2022-11-15T14:18:02;11.89;83.36
70154;DHT22;57519;51.494;-2.626;2022-11-15T14:20:36;11.89;83.54
70154;DHT22;57519;51.494;-2.626;2022-11-15T14:23:19;11.83;82.46
70154;DHT22;57519;51.494;-2.626;2022-11-15T14:25:58;11.83;83.10
70154;DHT22;57519;51.494;-2.626;2022-11-15T14:30:51;11.86;83.54
70154;DHT22;57519;51.494;-2.626;2022-11-15T14:35:51;12.05;81.01
70154;DHT22;57519;51.494;-2.626;2022-11-15T14:38:17;12.08;80.72
70154;DHT22;57519;51.494;-2.626;2022-11-15T14:40:43;12.05;80.71
70154;DHT22;57519;51.494;-2.626;2022-11-15T14:43:12;11.96;82.30
70154;DHT22;57519;51.494;-2.626;2022-11-15T14:45:38;11.77;81.93
70154;DHT22;57519;51.494;-2.626;2022-11-15T14:48:04;11.63;83.16
70154;DHT22;57519;51.494;-2.626;2022-11-15T14:50:31;11.51;85.19
70154;DHT22;57519;51.494;-2.626;2022-11-15T14:52:57;11.40;85.13
70154;DHT22;57519;51.494;-2.626;2022-11-15T14:55:28;11.45;84.75
70154;DHT22;57519;51.494;-2.626;2022-11-15T14:57:55;11.40;85.71
70154;DHT22;57519;51.494;-2.626;2022-11-15T15:00:21;11.36;86.20
70154;DHT22;57519;51.494;-2.626;2022-11-15T15:02:48;11.27;86.95
70154;DHT22;57519;51.494;-2.626;2022-11-15T15:05:29;11.22;86.74
70154;DHT22;57519;51.494;-2.626;2022-11-15T15:07:55;11.22;87.32
70154;DHT22;57519;51.494;-2.626;2022-11-15T15:10:21;11.22;88.23
70154;DHT22;57519;51.494;-2.626;2022-11-15T15:12:47;11.24;88.27
70154;DHT22;57519;51.494;-2.626;2022-11-15T15:15:35;11.27;88.39
70154;DHT22;57519;51.494;-2.626;2022-11-15T15:17:59;11.31;88.70
70154;DHT22;57519;51.494;-2.626;2022-11-15T15:20:25;11.29;88.00
70154;DHT22;57519;51.494;-2.626;2022-11-15T15:22:50;11.29;88.66
70154;DHT22;57519;51.494;-2.626;2022-11-15T15:25:34;11.22;89.48
70154;DHT22;57519;51.494;-2.626;2022-11-15T15:28:00;11.17;90.39
70154;DHT22;57519;51.494;-2.626;2022-11-15T15:30:28;11.15;90.51
70154;DHT22;57519;51.494;-2.626;2022-11-15T15:32:54;11.03;90.13
70154;DHT22;57519;51.494;-2.626;2022-11-15T15:35:20;10.91;90.60
70154;DHT22;57519;51.494;-2.626;2022-11-15T15:37:48;10.85;91.32
70154;DHT22;57519;51.494;-2.626;2022-11-15T15:42:41;10.81;92.03
70154;DHT22;57519;51.494;-2.626;2022-11-15T15:45:08;10.79;92.27
70154;DHT22;57519;51.494;-2.626;2022-11-15T15:47:34;10.80;92.48
70154;DHT22;57519;51.494;-2.626;2022-11-15T15:49:59;10.77;92.33
70154;DHT22;57519;51.494;-2.626;2022-11-15T15:52:24;10.73;92.13
70154;DHT22;57519;51.494;-2.626;2022-11-15T15:54:50;10.70;92.26
70154;DHT22;57519;51.494;-2.626;2022-11-15T15:57:16;10.67;92.28
70154;DHT22;57519;51.494;-2.626;2022-11-15T15:59:41;10.66;92.32
70154;DHT22;57519;51.494;-2.626;2022-11-15T16:02:11;10.66;92.16
70154;DHT22;57519;51.494;-2.626;2022-11-15T16:04:37;10.60;91.86
70154;DHT22;57519;51.494;-2.626;2022-11-15T16:07:03;10.62;92.32
70154;DHT22;57519;51.494;-2.626;2022-11-15T16:09:29;10.62;92.62
70154;DHT22;57519;51.494;-2.626;2022-11-15T16:12:13;10.53;92.32
70154;DHT22;57519;51.494;-2.626;2022-11-15T16:14:41;10.55;92.46
70154;DHT22;57519;51.494;-2.626;2022-11-15T16:17:11;10.52;92.90
70154;DHT22;57519;51.494;-2.626;2022-11-15T16:19:41;10.48;93.30
70154;DHT22;57519;51.494;-2.626;2022-11-15T16:22:07;10.38;93.47
70154;DHT22;57519;51.494;-2.626;2022-11-15T16:24:32;10.29;93.63
70154;DHT22;57519;51.494;-2.626;2022-11-15T16:26:58;10.25;93.81
70154;DHT22;57519;51.494;-2.626;2022-11-15T16:29:23;10.18;93.91
70154;DHT22;57519;51.494;-2.626;2022-11-15T16:31:49;10.08;93.93
70154;DHT22;57519;51.494;-2.626;2022-11-15T16:34:14;9.95;93.92
70154;DHT22;57519;51.494;-2.626;2022-11-15T16:36:39;9.81;93.96
70154;DHT22;57519;51.494;-2.626;2022-11-15T16:39:05;9.74;94.10
70154;DHT22;57519;51.494;-2.626;2022-11-15T16:41:32;9.70;94.16
70154;DHT22;57519;51.494;-2.626;2022-11-15T16:43:58;9.67;94.33
70154;DHT22;57519;51.494;-2.626;2022-11-15T16:46:26;9.70;94.49
70154;DHT22;57519;51.494;-2.626;2022-11-15T16:48:52;9.67;94.51
70154;DHT22;57519;51.494;-2.626;2022-11-15T16:51:18;9.74;94.89
70154;DHT22;57519;51.494;-2.626;2022-11-15T16:53:44;9.70;94.85
70154;DHT22;57519;51.494;-2.626;2022-11-15T16:56:27;9.69;94.81
70154;DHT22;57519;51.494;-2.626;2022-11-15T16:58:56;9.70;94.86
70154;DHT22;57519;51.494;-2.626;2022-11-15T17:01:30;9.73;95.07
70154;DHT22;57519;51.494;-2.626;2022-11-15T17:03:56;9.80;95.20
70154;DHT22;57519;51.494;-2.626;2022-11-15T17:06:23;9.71;95.06
70154;DHT22;57519;51.494;-2.626;2022-11-15T17:08:49;9.66;94.86
70154;DHT22;57519;51.494;-2.626;2022-11-15T17:11:20;9.70;94.84
70154;DHT22;57519;51.494;-2.626;2022-11-15T17:13:47;9.77;94.27
70154;DHT22;57519;51.494;-2.626;2022-11-15T17:16:15;9.77;93.59
70154;DHT22;57519;51.494;-2.626;2022-11-15T17:18:42;9.78;93.61
70154;DHT22;57519;51.494;-2.626;2022-11-15T17:21:14;9.84;93.26
70154;DHT22;57519;51.494;-2.626;2022-11-15T17:23:41;9.76;93.23
70154;DHT22;57519;51.494;-2.626;2022-11-15T17:26:06;9.77;93.50
70154;DHT22;57519;51.494;-2.626;2022-11-15T17:28:32;9.74;93.49
70154;DHT22;57519;51.494;-2.626;2022-11-15T17:30:58;9.71;93.39
70154;DHT22;57519;51.494;-2.626;2022-11-15T17:33:24;9.58;93.34
70154;DHT22;57519;51.494;-2.626;2022-11-15T17:35:57;9.58;92.73